MI24 weather

Deer Lake Airpark
East Jordan, Michigan, United States

Public forecast

Using degrees Fahrenheit for public forecast. Weather courtesy of forecast.io.

Closest aviation weather report (METAR) to Deer Lake Airpark

Closest report is Antrim County Airport, 12.3 nm (22.7 km) SW. Retrieved 2019/10/16 04:36 UTC (0 seconds ago):

KACB 160436Z AUTO 00000KT 7SM OVC014 10/09 A2961 RMK AO2 T00950085

Closest aviation forecast (TAF) to Deer Lake Airpark

Closest forecast is Pellston Regional Airport of Emmet County Airport, 27.2 nm (50.5 km) NNE. Retrieved 2019-10-16 00:24 UTC (4 hours ago):

TAF KPLN 152322Z 1600/1624 09008KT P6SM -SHRA OVC050 FM160100 09009KT 4SM -SHRA BR OVC030 FM160200 09010KT 5SM -SHRA BR OVC017 FM160400 08009KT 4SM -SHRA BR OVC007 FM161200 34009KT 3SM -SHRA BR OVC007 FM161800 34016G29KT 3SM -SHRA OVC009 FM162200 34017G29KT 6SM -SHRA OVC015